Leakey, Texas
Current Conditions -  °F | °C
As of 7:30 AM on Wednesday 22 Oct 2014 (Local Time) from KECU Reporting Station
Broken Clouds Broken Clouds  
Wind Chill: 64°   Ceiling: 8000
Heat Index: 64°   Visibility: 10mi
Dew Point: 55°   Wind: 6mph
Humidity: 73%   Direction: 110°ESE
Pressure: 30.13"   Gusts: NA
Location:  29.73°N, 99.76°W
Report Text: KECU 221230Z AUTO 11005KT 10SM SCT050 SCT070 BKN080 18/13 A3013 RMK AO2
Loading
Personal Weather Stations






























Interactive Weather Map
Tropical Storm Tracking
New forecast layout! Learn more

10-Day Weather Forecast

Advertisements
Track Severe Weather on mobile